Mahaffey, PA (15757)

4:38 PM EST on February 01, 2015 (GMT -0500)
NE Indiana County Pa. | Change Station
CLOSE
Current Station
Personal Weather Station
Location: Cherry Tree, PA
Elevation: 1601 ft
Nearby Weather Stations
Active Advisory: Winter Storm Warning

Elev 1601 ft 40.78 °N, 78.81 °W | Updated 35 seconds ago

Snow
Snow
31.3 °F
Feels Like 31 °F
N
0.0
Wind Variable Wind from ESE
Gusts 3.0 mph

Today
High -- | Low -- °F
--% Chance of Precip.
Yesterday
High -- | Low -- °F
Precip. -- in
7:25 AM 5:31 PM
Waxing Gibbous, 96% visible
Pressure 29.96 in
Visibility 0.2 miles
Clouds
Windchill 31 °F
Dew Point 30 °F
Humidity 97%
Rainfall 0.00 in
Snow Depth Not available.
UV Not available.
Pollen .10 out of 12
Air Quality Not available.
Flu Activity Not available.
SPECI KFIG 012128Z AUTO 10004KT 1/4SM SN FZFG VV007 M02/M03 A2996 RMK AO2 P0003 T10221028

More Conditions Fewer Conditions

Pressure 29.96 in
Visibility 0.2 miles
Clouds
Windchill 31 °F
Dew Point 30 °F
Humidity 97%
Rainfall 0.00 in
Snow Depth Not available.
UV Not available.
Pollen .10 out of 12
Air Quality Not available.
Flu Activity Not available.
SPECI KFIG 012128Z AUTO 10004KT 1/4SM SN FZFG VV007 M02/M03 A2996 RMK AO2 P0003 T10221028

More Conditions Fewer Conditions

Nowcast | as of 3:51 PM EST on February 1, 2015

Bands of snow will become heavier across much of the area into the early evening hours. The snow may come down at a rate of an inch per hours. With temperatures near or just below freezing...travel conditions will likely become poor after sunset. Persons traveling this evening should allow plenty of extra travel time and slow down.

×

10-Day Weather Forecast

Almanac

Astronomy

Feb. 01, 2015 Rise Set
Actual Time
Civil Twilight
Nautical Twilight
Astronomical Twilight
Moon
Length of Visible Light
Length of Day
Tomorrow will be .
, % of the Moon is Illuminated

Today's Extremes

State Highs State Lows

Community

WunderPhotos

Upload Photos

1,792,553 photos uploaded!

WunderBlogs® & News

Nearby

Air Quality

  Air Quality AQ Index Pollutant
Not available.

Snow Depth

Station Depth Elevation

Earthquake Activity

City Distance Mag. Time & Date
Minimum magnitude displayed is 2.5.

Coastal Water Temperatures

Place Temperature

Nearby Weather Stations